sensor_id;sensor_type;location;lat;lon;timestamp;pressure;altitude;pressure_sealevel;temperature;humidity
10638;BME280;47007;49.252;8.904;2023-02-28T00:00:28;100691.19;;;-0.25;100.00
10638;BME280;47007;49.252;8.904;2023-02-28T00:01:11;100662.59;;;-0.41;100.00
10638;BME280;47007;49.252;8.904;2023-02-28T00:01:52;100688.44;;;-0.23;100.00
10638;BME280;47007;49.252;8.904;2023-02-28T00:02:34;100690.69;;;-0.31;100.00
10638;BME280;47007;49.252;8.904;2023-02-28T00:03:16;100692.19;;;-0.27;100.00
10638;BME280;47007;49.252;8.904;2023-02-28T00:03:58;100661.84;;;-0.43;100.00
10638;BME280;47007;49.252;8.904;2023-02-28T00:04:40;100690.03;;;-0.35;100.00
10638;BME280;47007;49.252;8.904;2023-02-28T00:05:23;100700.09;;;-0.29;100.00
10638;BME280;47007;49.252;8.904;2023-02-28T00:06:06;100697.59;;;-0.30;100.00
10638;BME280;47007;49.252;8.904;2023-02-28T00:06:47;100697.22;;;-0.39;100.00
10638;BME280;47007;49.252;8.904;2023-02-28T00:07:30;100700.28;;;-0.32;100.00
10638;BME280;47007;49.252;8.904;2023-02-28T00:08:11;100622.16;;;-0.75;100.00
10638;BME280;47007;49.252;8.904;2023-02-28T00:08:54;100692.63;;;-0.35;100.00
10638;BME280;47007;49.252;8.904;2023-02-28T00:09:36;100691.44;;;-0.29;100.00
10638;BME280;47007;49.252;8.904;2023-02-28T00:10:20;100688.84;;;-0.29;100.00
10638;BME280;47007;49.252;8.904;2023-02-28T00:11:03;100699.09;;;-0.26;100.00
10638;BME280;47007;49.252;8.904;2023-02-28T00:11:45;100693.97;;;-0.28;100.00
10638;BME280;47007;49.252;8.904;2023-02-28T00:12:27;100687.16;;;-0.30;100.00
10638;BME280;47007;49.252;8.904;2023-02-28T00:13:09;100682.44;;;-0.38;100.00
10638;BME280;47007;49.252;8.904;2023-02-28T00:13:51;100680.53;;;-0.36;100.00
10638;BME280;47007;49.252;8.904;2023-02-28T00:14:32;100682.88;;;-0.31;100.00
10638;BME280;47007;49.252;8.904;2023-02-28T00:15:14;100687.44;;;-0.35;100.00
10638;BME280;47007;49.252;8.904;2023-02-28T00:16:04;100690.78;;;-0.33;100.00
10638;BME280;47007;49.252;8.904;2023-02-28T00:16:46;100663.06;;;-0.48;100.00
10638;BME280;47007;49.252;8.904;2023-02-28T00:17:28;100660.75;;;-0.53;100.00
10638;BME280;47007;49.252;8.904;2023-02-28T00:18:10;100682.44;;;-0.38;100.00
10638;BME280;47007;49.252;8.904;2023-02-28T00:18:53;100661.84;;;-0.57;100.00
10638;BME280;47007;49.252;8.904;2023-02-28T00:19:34;100699.91;;;-0.40;100.00
10638;BME280;47007;49.252;8.904;2023-02-28T00:20:16;100690.31;;;-0.40;100.00
10638;BME280;47007;49.252;8.904;2023-02-28T00:20:58;100641.00;;;-0.71;100.00
10638;BME280;47007;49.252;8.904;2023-02-28T00:21:40;100681.47;;;-0.37;100.00
10638;BME280;47007;49.252;8.904;2023-02-28T00:22:22;100683.88;;;-0.48;100.00
10638;BME280;47007;49.252;8.904;2023-02-28T00:23:04;100687.44;;;-0.35;100.00
10638;BME280;47007;49.252;8.904;2023-02-28T00:23:46;100610.31;;;-0.80;100.00
10638;BME280;47007;49.252;8.904;2023-02-28T00:24:27;100687.50;;;-0.37;100.00
10638;BME280;47007;49.252;8.904;2023-02-28T00:25:11;100701.50;;;-0.38;100.00
10638;BME280;47007;49.252;8.904;2023-02-28T00:25:54;100674.59;;;-0.52;100.00
10638;BME280;47007;49.252;8.904;2023-02-28T00:26:35;100677.75;;;-0.47;100.00
10638;BME280;47007;49.252;8.904;2023-02-28T00:27:17;100692.28;;;-0.43;100.00
10638;BME280;47007;49.252;8.904;2023-02-28T00:28:00;100701.94;;;-0.45;100.00
10638;BME280;47007;49.252;8.904;2023-02-28T00:28:42;100655.34;;;-0.64;100.00
10638;BME280;47007;49.252;8.904;2023-02-28T00:29:24;100686.97;;;-0.42;100.00
10638;BME280;47007;49.252;8.904;2023-02-28T00:30:09;100684.47;;;-0.43;100.00
10638;BME280;47007;49.252;8.904;2023-02-28T00:30:51;100681.19;;;-0.47;100.00
10638;BME280;47007;49.252;8.904;2023-02-28T00:31:33;100675.22;;;-0.49;100.00
10638;BME280;47007;49.252;8.904;2023-02-28T00:32:15;100654.69;;;-0.67;100.00
10638;BME280;47007;49.252;8.904;2023-02-28T00:32:57;100692.75;;;-0.51;100.00
10638;BME280;47007;49.252;8.904;2023-02-28T00:33:38;100650.66;;;-0.73;100.00
10638;BME280;47007;49.252;8.904;2023-02-28T00:34:20;100694.59;;;-0.53;100.00
10638;BME280;47007;49.252;8.904;2023-02-28T00:35:02;100676.81;;;-0.60;100.00
10638;BME280;47007;49.252;8.904;2023-02-28T00:35:44;100685.84;;;-0.52;100.00
10638;BME280;47007;49.252;8.904;2023-02-28T00:36:30;100685.94;;;-0.53;100.00
10638;BME280;47007;49.252;8.904;2023-02-28T00:37:12;100677.72;;;-0.61;100.00
10638;BME280;47007;49.252;8.904;2023-02-28T00:37:53;100698.97;;;-0.53;100.00
10638;BME280;47007;49.252;8.904;2023-02-28T00:38:36;100684.63;;;-0.60;100.00
10638;BME280;47007;49.252;8.904;2023-02-28T00:39:18;100692.75;;;-0.51;100.00
10638;BME280;47007;49.252;8.904;2023-02-28T00:39:59;100687.53;;;-0.51;100.00
10638;BME280;47007;49.252;8.904;2023-02-28T00:40:41;100688.38;;;-0.50;100.00
10638;BME280;47007;49.252;8.904;2023-02-28T00:41:25;100690.47;;;-0.57;100.00
10638;BME280;47007;49.252;8.904;2023-02-28T00:42:07;100705.84;;;-0.52;100.00
10638;BME280;47007;49.252;8.904;2023-02-28T00:42:49;100629.09;;;-0.89;100.00
10638;BME280;47007;49.252;8.904;2023-02-28T00:43:35;100694.84;;;-0.57;100.00
10638;BME280;47007;49.252;8.904;2023-02-28T00:44:17;100648.81;;;-0.71;100.00
10638;BME280;47007;49.252;8.904;2023-02-28T00:44:59;100668.53;;;-0.67;100.00
10638;BME280;47007;49.252;8.904;2023-02-28T00:45:41;100708.91;;;-0.46;100.00
10638;BME280;47007;49.252;8.904;2023-02-28T00:46:23;100694.03;;;-0.44;100.00
10638;BME280;47007;49.252;8.904;2023-02-28T00:47:04;100673.84;;;-0.54;100.00
10638;BME280;47007;49.252;8.904;2023-02-28T00:47:47;100661.56;;;-0.66;100.00
10638;BME280;47007;49.252;8.904;2023-02-28T00:48:32;100684.72;;;-0.48;100.00
10638;BME280;47007;49.252;8.904;2023-02-28T00:49:14;100702.88;;;-0.46;100.00
10638;BME280;47007;49.252;8.904;2023-02-28T00:49:56;100696.81;;;-0.47;100.00
10638;BME280;47007;49.252;8.904;2023-02-28T00:50:38;100684.72;;;-0.48;100.00
10638;BME280;47007;49.252;8.904;2023-02-28T00:51:19;100667.88;;;-0.56;100.00
10638;BME280;47007;49.252;8.904;2023-02-28T00:52:01;100696.06;;;-0.49;100.00
10638;BME280;47007;49.252;8.904;2023-02-28T00:52:43;100687.31;;;-0.48;100.00
10638;BME280;47007;49.252;8.904;2023-02-28T00:53:25;100666.22;;;-0.57;100.00
10638;BME280;47007;49.252;8.904;2023-02-28T00:54:07;100679.31;;;-0.59;100.00
10638;BME280;47007;49.252;8.904;2023-02-28T00:54:48;100686.78;;;-0.53;100.00
10638;BME280;47007;49.252;8.904;2023-02-28T00:55:30;100684.19;;;-0.53;100.00
10638;BME280;47007;49.252;8.904;2023-02-28T00:56:11;100674.41;;;-0.63;100.00
10638;BME280;47007;49.252;8.904;2023-02-28T00:56:53;100683.25;;;-0.52;100.00
10638;BME280;47007;49.252;8.904;2023-02-28T00:57:35;100685.84;;;-0.52;100.00
10638;BME280;47007;49.252;8.904;2023-02-28T00:58:17;100668.44;;;-0.65;100.00
10638;BME280;47007;49.252;8.904;2023-02-28T00:58:59;100630.94;;;-0.91;100.00
10638;BME280;47007;49.252;8.904;2023-02-28T00:59:41;100634.66;;;-0.81;100.00
10638;BME280;47007;49.252;8.904;2023-02-28T01:00:22;100668.44;;;-0.65;100.00
10638;BME280;47007;49.252;8.904;2023-02-28T01:01:04;100691.31;;;-0.56;100.00
10638;BME280;47007;49.252;8.904;2023-02-28T01:01:46;100676.34;;;-0.67;100.00
10638;BME280;47007;49.252;8.904;2023-02-28T01:02:28;100687.88;;;-0.57;100.00
10638;BME280;47007;49.252;8.904;2023-02-28T01:03:09;100686.03;;;-0.55;100.00
10638;BME280;47007;49.252;8.904;2023-02-28T01:03:51;100695.44;;;-0.52;100.00
10638;BME280;47007;49.252;8.904;2023-02-28T01:04:34;100693.94;;;-0.56;100.00
10638;BME280;47007;49.252;8.904;2023-02-28T01:05:16;100657.19;;;-0.66;100.00
10638;BME280;47007;49.252;8.904;2023-02-28T01:05:59;100682.50;;;-0.54;100.00
10638;BME280;47007;49.252;8.904;2023-02-28T01:06:41;100532.56;;;-1.43;100.00
10638;BME280;47007;49.252;8.904;2023-02-28T01:07:24;100693.75;;;-0.53;100.00
10638;BME280;47007;49.252;8.904;2023-02-28T01:08:06;100674.78;;;-0.55;100.00
10638;BME280;47007;49.252;8.904;2023-02-28T01:08:48;100651.50;;;-0.73;100.00
10638;BME280;47007;49.252;8.904;2023-02-28T01:09:30;100678.97;;;-0.53;100.00
10638;BME280;47007;49.252;8.904;2023-02-28T01:10:12;100684.44;;;-0.57;100.00
10638;BME280;47007;49.252;8.904;2023-02-28T01:10:54;100679.31;;;-0.59;100.00
10638;BME280;47007;49.252;8.904;2023-02-28T01:11:36;100683.50;;;-0.56;100.00
10638;BME280;47007;49.252;8.904;2023-02-28T01:12:18;100656.44;;;-0.68;100.00
10638;BME280;47007;49.252;8.904;2023-02-28T01:13:01;100684.19;;;-0.53;100.00
10638;BME280;47007;49.252;8.904;2023-02-28T01:13:44;100685.00;;;-0.52;100.00
10638;BME280;47007;49.252;8.904;2023-02-28T01:14:26;100678.03;;;-0.52;100.00
10638;BME280;47007;49.252;8.904;2023-02-28T01:15:10;100695.50;;;-0.54;100.00
10638;BME280;47007;49.252;8.904;2023-02-28T01:15:55;100677.38;;;-0.55;100.00
10638;BME280;47007;49.252;8.904;2023-02-28T01:16:37;100696.44;;;-0.55;100.00
10638;BME280;47007;49.252;8.904;2023-02-28T01:17:18;100671.88;;;-0.65;100.00
10638;BME280;47007;49.252;8.904;2023-02-28T01:18:00;100679.22;;;-0.57;100.00
10638;BME280;47007;49.252;8.904;2023-02-28T01:18:42;100647.97;;;-0.72;100.00
10638;BME280;47007;49.252;8.904;2023-02-28T01:19:24;100664.44;;;-0.71;100.00
10638;BME280;47007;49.252;8.904;2023-02-28T01:20:06;100652.44;;;-0.74;100.00
10638;BME280;47007;49.252;8.904;2023-02-28T01:20:48;100674.50;;;-0.65;100.00
10638;BME280;47007;49.252;8.904;2023-02-28T01:21:31;100679.53;;;-0.62;100.00
10638;BME280;47007;49.252;8.904;2023-02-28T01:22:13;100682.13;;;-0.62;100.00
10638;BME280;47007;49.252;8.904;2023-02-28T01:22:56;100676.16;;;-0.64;100.00
10638;BME280;47007;49.252;8.904;2023-02-28T01:23:39;100654.41;;;-0.77;100.00
10638;BME280;47007;49.252;8.904;2023-02-28T01:24:21;100677.84;;;-0.63;100.00
10638;BME280;47007;49.252;8.904;2023-02-28T01:25:03;100692.53;;;-0.62;100.00
10638;BME280;47007;49.252;8.904;2023-02-28T01:25:45;100610.84;;;-1.03;100.00
10638;BME280;47007;49.252;8.904;2023-02-28T01:26:27;100620.72;;;-0.94;100.00
10638;BME280;47007;49.252;8.904;2023-02-28T01:27:09;100668.53;;;-0.67;100.00
10638;BME280;47007;49.252;8.904;2023-02-28T01:27:51;100662.84;;;-0.74;100.00
10638;BME280;47007;49.252;8.904;2023-02-28T01:28:33;100672.25;;;-0.71;100.00
10638;BME280;47007;49.252;8.904;2023-02-28T01:29:15;100681.28;;;-0.62;100.00
10638;BME280;47007;49.252;8.904;2023-02-28T01:29:57;100664.50;;;-0.73;100.00
10638;BME280;47007;49.252;8.904;2023-02-28T01:30:38;100672.31;;;-0.73;100.00
10638;BME280;47007;49.252;8.904;2023-02-28T01:31:21;100681.47;;;-0.65;100.00
10638;BME280;47007;49.252;8.904;2023-02-28T01:32:03;100675.34;;;-0.64;100.00
10638;BME280;47007;49.252;8.904;2023-02-28T01:32:45;100670.31;;;-0.67;100.00
10638;BME280;47007;49.252;8.904;2023-02-28T01:33:27;100668.72;;;-0.70;100.00
10638;BME280;47007;49.252;8.904;2023-02-28T01:34:09;100686.59;;;-0.64;100.00
10638;BME280;47007;49.252;8.904;2023-02-28T01:34:51;100679.69;;;-0.65;100.00
10638;BME280;47007;49.252;8.904;2023-02-28T01:35:34;100687.41;;;-0.63;100.00
10638;BME280;47007;49.252;8.904;2023-02-28T01:36:19;100665.81;;;-0.80;100.00
10638;BME280;47007;49.252;8.904;2023-02-28T01:37:01;100654.91;;;-0.86;100.00
10638;BME280;47007;49.252;8.904;2023-02-28T01:37:43;100679.03;;;-0.68;100.00
10638;BME280;47007;49.252;8.904;2023-02-28T01:38:24;100656.59;;;-0.85;100.00
10638;BME280;47007;49.252;8.904;2023-02-28T01:39:08;100692.97;;;-0.69;100.00
10638;BME280;47007;49.252;8.904;2023-02-28T01:39:49;100674.94;;;-0.73;100.00
10638;BME280;47007;49.252;8.904;2023-02-28T01:40:34;100679.22;;;-0.72;100.00
10638;BME280;47007;49.252;8.904;2023-02-28T01:41:36;100680.22;;;-0.74;100.00
10638;BME280;47007;49.252;8.904;2023-02-28T01:42:18;100683.88;;;-0.77;100.00
10638;BME280;47007;49.252;8.904;2023-02-28T01:42:59;100625.97;;;-1.10;100.00
10638;BME280;47007;49.252;8.904;2023-02-28T01:45:39;100658.16;;;-0.97;100.00
10638;BME280;47007;49.252;8.904;2023-02-28T01:46:21;100667.66;;;-0.82;100.00
10638;BME280;47007;49.252;8.904;2023-02-28T01:47:03;100669.25;;;-0.79;100.00
10638;BME280;47007;49.252;8.904;2023-02-28T01:47:45;100682.28;;;-0.79;100.00
10638;BME280;47007;49.252;8.904;2023-02-28T01:48:31;100602.19;;;-1.18;100.00
10638;BME280;47007;49.252;8.904;2023-02-28T01:49:16;100675.22;;;-0.77;100.00
10638;BME280;47007;49.252;8.904;2023-02-28T01:50:01;100684.03;;;-0.80;100.00
10638;BME280;47007;49.252;8.904;2023-02-28T01:50:46;100586.69;;;-1.35;100.00
10638;BME280;47007;49.252;8.904;2023-02-28T01:51:37;100654.44;;;-0.93;100.00
10638;BME280;47007;49.252;8.904;2023-02-28T01:52:19;100667.84;;;-0.85;100.00
10638;BME280;47007;49.252;8.904;2023-02-28T01:53:06;100673.88;;;-0.84;100.00
10638;BME280;47007;49.252;8.904;2023-02-28T01:53:52;100676.50;;;-0.84;100.00
10638;BME280;47007;49.252;8.904;2023-02-28T01:54:34;100662.84;;;-0.88;100.00
10638;BME280;47007;49.252;8.904;2023-02-28T01:55:19;100665.22;;;-0.85;100.00
10638;BME280;47007;49.252;8.904;2023-02-28T01:56:04;100647.34;;;-1.05;100.00
10638;BME280;47007;49.252;8.904;2023-02-28T01:56:53;100651.09;;;-0.95;100.00
10638;BME280;47007;49.252;8.904;2023-02-28T01:57:39;100672.41;;;-0.88;100.00
10638;BME280;47007;49.252;8.904;2023-02-28T01:58:23;100666.16;;;-0.86;100.00
10638;BME280;47007;49.252;8.904;2023-02-28T01:59:05;100671.38;;;-0.86;100.00
10638;BME280;47007;49.252;8.904;2023-02-28T01:59:59;100669.91;;;-0.90;100.00
10638;BME280;47007;49.252;8.904;2023-02-28T02:00:53;100676.84;;;-0.90;100.00
10638;BME280;47007;49.252;8.904;2023-02-28T02:01:35;100665.63;;;-0.91;100.00
10638;BME280;47007;49.252;8.904;2023-02-28T02:02:18;100663.00;;;-0.91;100.00
10638;BME280;47007;49.252;8.904;2023-02-28T02:03:08;100634.69;;;-1.11;100.00
10638;BME280;47007;49.252;8.904;2023-02-28T02:03:52;100663.94;;;-0.92;100.00
10638;BME280;47007;49.252;8.904;2023-02-28T02:04:50;100663.09;;;-0.92;100.00
10638;BME280;47007;49.252;8.904;2023-02-28T02:05:33;100663.00;;;-0.91;100.00
10638;BME280;47007;49.252;8.904;2023-02-28T02:06:15;100634.53;;;-1.08;100.00
10638;BME280;47007;49.252;8.904;2023-02-28T02:06:58;100610.59;;;-1.29;100.00
10638;BME280;47007;49.252;8.904;2023-02-28T02:07:41;100658.66;;;-0.90;100.00
10638;BME280;47007;49.252;8.904;2023-02-28T02:08:26;100638.72;;;-1.05;100.00
10638;BME280;47007;49.252;8.904;2023-02-28T02:09:10;100606.72;;;-1.22;100.00
10638;BME280;47007;49.252;8.904;2023-02-28T02:10:04;100659.31;;;-0.87;100.00
10638;BME280;47007;49.252;8.904;2023-02-28T02:10:48;100662.84;;;-0.88;100.00
10638;BME280;47007;49.252;8.904;2023-02-28T02:11:33;100663.09;;;-0.92;100.00
10638;BME280;47007;49.252;8.904;2023-02-28T02:12:32;100658.44;;;-1.01;100.00
10638;BME280;47007;49.252;8.904;2023-02-28T02:17:57;100583.34;;;-1.52;100.00
10638;BME280;47007;49.252;8.904;2023-02-28T02:19:17;100656.75;;;-1.02;100.00
10638;BME280;47007;49.252;8.904;2023-02-28T02:20:38;100656.75;;;-1.02;100.00
10638;BME280;47007;49.252;8.904;2023-02-28T02:24:58;100656.09;;;-1.06;100.00
10638;BME280;47007;49.252;8.904;2023-02-28T02:25:50;100651.72;;;-1.05;100.00
10638;BME280;47007;49.252;8.904;2023-02-28T02:29:06;100649.13;;;-1.05;100.00
10638;BME280;47007;49.252;8.904;2023-02-28T02:33:43;100648.38;;;-1.08;100.00
10638;BME280;47007;49.252;8.904;2023-02-28T02:34:45;100647.53;;;-1.08;100.00
10638;BME280;47007;49.252;8.904;2023-02-28T02:35:53;100636.66;;;-1.15;100.00
10638;BME280;47007;49.252;8.904;2023-02-28T02:36:41;100642.03;;;-1.18;100.00
10638;BME280;47007;49.252;8.904;2023-02-28T02:40:20;100646.59;;;-1.07;100.00
10638;BME280;47007;49.252;8.904;2023-02-28T02:42:01;100649.03;;;-1.04;100.00
10638;BME280;47007;49.252;8.904;2023-02-28T02:42:51;100578.69;;;-1.47;100.00
10638;BME280;47007;49.252;8.904;2023-02-28T02:43:48;100653.66;;;-1.09;100.00
10638;BME280;47007;49.252;8.904;2023-02-28T02:44:38;100642.78;;;-1.16;100.00
10638;BME280;47007;49.252;8.904;2023-02-28T02:46:22;100661.00;;;-1.16;100.00
10638;BME280;47007;49.252;8.904;2023-02-28T02:47:10;100645.56;;;-1.19;100.00
10638;BME280;47007;49.252;8.904;2023-02-28T02:47:55;100640.53;;;-1.22;100.00
10638;BME280;47007;49.252;8.904;2023-02-28T02:48:41;100642.94;;;-1.19;100.00
10638;BME280;47007;49.252;8.904;2023-02-28T02:49:33;100631.03;;;-1.23;100.00
10638;BME280;47007;49.252;8.904;2023-02-28T02:50:24;100643.03;;;-1.20;100.00
10638;BME280;47007;49.252;8.904;2023-02-28T02:51:11;100648.31;;;-1.22;100.00
10638;BME280;47007;49.252;8.904;2023-02-28T02:51:58;100656.22;;;-1.23;100.00
10638;BME280;47007;49.252;8.904;2023-02-28T02:52:48;100663.22;;;-1.24;100.00
10638;BME280;47007;49.252;8.904;2023-02-28T02:53:37;100614.84;;;-1.42;100.00
10638;BME280;47007;49.252;8.904;2023-02-28T02:54:24;100640.88;;;-1.28;100.00
10638;BME280;47007;49.252;8.904;2023-02-28T02:55:11;100645.09;;;-1.25;100.00
10638;BME280;47007;49.252;8.904;2023-02-28T02:55:54;100629.72;;;-1.30;100.00
10638;BME280;47007;49.252;8.904;2023-02-28T02:56:39;100651.00;;;-1.23;100.00
10638;BME280;47007;49.252;8.904;2023-02-28T02:57:26;100652.13;;;-1.27;100.00
10638;BME280;47007;49.252;8.904;2023-02-28T02:58:15;100658.94;;;-1.25;100.00
10638;BME280;47007;49.252;8.904;2023-02-28T02:59:04;100628.06;;;-1.31;100.00
10638;BME280;47007;49.252;8.904;2023-02-28T02:59:49;100630.06;;;-1.36;100.00
10638;BME280;47007;49.252;8.904;2023-02-28T03:00:41;100650.00;;;-1.21;100.00
10638;BME280;47007;49.252;8.904;2023-02-28T03:01:25;100649.16;;;-1.21;100.00
10638;BME280;47007;49.252;8.904;2023-02-28T03:02:12;100616.50;;;-1.41;100.00
10638;BME280;47007;49.252;8.904;2023-02-28T03:02:56;100619.88;;;-1.39;100.00
10638;BME280;47007;49.252;8.904;2023-02-28T03:03:38;100641.44;;;-1.23;100.00
10638;BME280;47007;49.252;8.904;2023-02-28T03:04:23;100637.63;;;-1.31;100.00
10638;BME280;47007;49.252;8.904;2023-02-28T03:05:17;100651.97;;;-1.24;100.00
10638;BME280;47007;49.252;8.904;2023-02-28T03:06:01;100640.97;;;-1.29;100.00
10638;BME280;47007;49.252;8.904;2023-02-28T03:06:43;100638.47;;;-1.31;100.00
10638;BME280;47007;49.252;8.904;2023-02-28T03:07:25;100639.28;;;-1.30;100.00
10638;BME280;47007;49.252;8.904;2023-02-28T03:08:07;100640.72;;;-1.25;100.00
10638;BME280;47007;49.252;8.904;2023-02-28T03:08:48;100641.56;;;-1.24;100.00
10638;BME280;47007;49.252;8.904;2023-02-28T03:09:33;100613.16;;;-1.43;100.00
10638;BME280;47007;49.252;8.904;2023-02-28T03:10:35;100646.09;;;-1.28;100.00
10638;BME280;47007;49.252;8.904;2023-02-28T03:11:17;100642.66;;;-1.28;100.00
10638;BME280;47007;49.252;8.904;2023-02-28T03:12:03;100627.25;;;-1.47;100.00
10638;BME280;47007;49.252;8.904;2023-02-28T03:13:07;100538.06;;;-1.93;100.00
10638;BME280;47007;49.252;8.904;2023-02-28T03:14:17;100646.94;;;-1.27;100.00
10638;BME280;47007;49.252;8.904;2023-02-28T03:15:26;100646.09;;;-1.28;100.00
10638;BME280;47007;49.252;8.904;2023-02-28T03:19:48;100638.81;;;-1.37;100.00
10638;BME280;47007;49.252;8.904;2023-02-28T03:20:38;100648.94;;;-1.32;100.00
10638;BME280;47007;49.252;8.904;2023-02-28T03:21:36;100653.06;;;-1.28;100.00
10638;BME280;47007;49.252;8.904;2023-02-28T03:22:32;100652.22;;;-1.29;100.00
10638;BME280;47007;49.252;8.904;2023-02-28T03:23:19;100657.50;;;-1.30;100.00
10638;BME280;47007;49.252;8.904;2023-02-28T03:24:15;100647.72;;;-1.41;100.00
10638;BME280;47007;49.252;8.904;2023-02-28T03:26:19;100586.47;;;-1.76;100.00
10638;BME280;47007;49.252;8.904;2023-02-28T03:27:11;100637.84;;;-1.50;100.00
10638;BME280;47007;49.252;8.904;2023-02-28T03:29:43;100655.44;;;-1.39;100.00
10638;BME280;47007;49.252;8.904;2023-02-28T03:30:36;100659.78;;;-1.40;100.00
10638;BME280;47007;49.252;8.904;2023-02-28T03:32:24;100648.56;;;-1.40;100.00
10638;BME280;47007;49.252;8.904;2023-02-28T03:34:08;100647.13;;;-1.46;100.00
10638;BME280;47007;49.252;8.904;2023-02-28T03:35:21;100652.16;;;-1.43;100.00
10638;BME280;47007;49.252;8.904;2023-02-28T03:36:16;100657.28;;;-1.41;100.00
10638;BME280;47007;49.252;8.904;2023-02-28T03:37:02;100651.56;;;-1.48;100.00
10638;BME280;47007;49.252;8.904;2023-02-28T03:37:46;100630.28;;;-1.55;100.00
10638;BME280;47007;49.252;8.904;2023-02-28T03:38:58;100646.97;;;-1.43;100.00
10638;BME280;47007;49.252;8.904;2023-02-28T03:39:49;100654.00;;;-1.45;100.00
10638;BME280;47007;49.252;8.904;2023-02-28T03:40:34;100648.25;;;-1.50;100.00
10638;BME280;47007;49.252;8.904;2023-02-28T03:41:37;100652.31;;;-1.46;100.00
10638;BME280;47007;49.252;8.904;2023-02-28T03:42:23;100629.63;;;-1.58;100.00
10638;BME280;47007;49.252;8.904;2023-02-28T03:43:11;100584.41;;;-1.86;100.00
10638;BME280;47007;49.252;8.904;2023-02-28T03:44:03;100664.47;;;-1.47;100.00
10638;BME280;47007;49.252;8.904;2023-02-28T03:44:58;100652.31;;;-1.46;100.00
10638;BME280;47007;49.252;8.904;2023-02-28T03:45:43;100639.84;;;-1.55;100.00
10638;BME280;47007;49.252;8.904;2023-02-28T03:46:30;100639.09;;;-1.57;100.00
10638;BME280;47007;49.252;8.904;2023-02-28T03:47:25;100643.22;;;-1.53;100.00
10638;BME280;47007;49.252;8.904;2023-02-28T03:48:13;100648.72;;;-1.43;100.00
10638;BME280;47007;49.252;8.904;2023-02-28T03:49:13;100645.03;;;-1.39;100.00
10638;BME280;47007;49.252;8.904;2023-02-28T03:50:52;100615.44;;;-1.53;100.00
10638;BME280;47007;49.252;8.904;2023-02-28T03:51:37;100630.75;;;-1.32;100.00
10638;BME280;47007;49.252;8.904;2023-02-28T03:52:22;100649.06;;;-1.20;100.00
10638;BME280;47007;49.252;8.904;2023-02-28T03:53:13;100614.66;;;-1.39;100.00
10638;BME280;47007;49.252;8.904;2023-02-28T03:54:01;100652.19;;;-1.13;100.00
10638;BME280;47007;49.252;8.904;2023-02-28T03:54:49;100657.38;;;-1.13;100.00
10638;BME280;47007;49.252;8.904;2023-02-28T03:55:38;100592.72;;;-1.49;100.00
10638;BME280;47007;49.252;8.904;2023-02-28T03:56:26;100658.38;;;-1.16;100.00
10638;BME280;47007;49.252;8.904;2023-02-28T03:57:22;100613.91;;;-1.41;100.00
10638;BME280;47007;49.252;8.904;2023-02-28T03:59:22;100650.75;;;-1.19;100.00
10638;BME280;47007;49.252;8.904;2023-02-28T04:00:09;100650.84;;;-1.20;100.00
10638;BME280;47007;49.252;8.904;2023-02-28T04:01:00;100652.69;;;-1.22;100.00
10638;BME280;47007;49.252;8.904;2023-02-28T04:01:49;100664.13;;;-1.25;100.00
10638;BME280;47007;49.252;8.904;2023-02-28T04:02:32;100649.69;;;-1.30;100.00
10638;BME280;47007;49.252;8.904;2023-02-28T04:03:14;100635.03;;;-1.47;100.00
10638;BME280;47007;49.252;8.904;2023-02-28T04:03:56;100587.63;;;-1.66;100.00
10638;BME280;47007;49.252;8.904;2023-02-28T04:04:38;100637.97;;;-1.37;100.00
10638;BME280;47007;49.252;8.904;2023-02-28T04:05:21;100644.28;;;-1.41;100.00
10638;BME280;47007;49.252;8.904;2023-02-28T04:06:06;100620.56;;;-1.51;100.00
10638;BME280;47007;49.252;8.904;2023-02-28T04:06:50;100599.88;;;-1.68;100.00
10638;BME280;47007;49.252;8.904;2023-02-28T04:07:32;100667.22;;;-1.34;100.00
10638;BME280;47007;49.252;8.904;2023-02-28T04:08:14;100645.03;;;-1.39;100.00
10638;BME280;47007;49.252;8.904;2023-02-28T04:08:56;100628.16;;;-1.48;100.00
10638;BME280;47007;49.252;8.904;2023-02-28T04:09:37;100627.53;;;-1.52;100.00
10638;BME280;47007;49.252;8.904;2023-02-28T04:10:19;100605.00;;;-1.67;100.00
10638;BME280;47007;49.252;8.904;2023-02-28T04:11:05;100647.34;;;-1.35;100.00
10638;BME280;47007;49.252;8.904;2023-02-28T04:11:50;100636.03;;;-1.34;100.00
10638;BME280;47007;49.252;8.904;2023-02-28T04:12:36;100647.78;;;-1.27;100.00
10638;BME280;47007;49.252;8.904;2023-02-28T04:13:18;100647.19;;;-1.32;100.00
10638;BME280;47007;49.252;8.904;2023-02-28T04:14:01;100650.88;;;-1.36;100.00
10638;BME280;47007;49.252;8.904;2023-02-28T04:14:43;100645.00;;;-1.24;100.00
10638;BME280;47007;49.252;8.904;2023-02-28T04:15:25;100658.66;;;-1.20;100.00
10638;BME280;47007;49.252;8.904;2023-02-28T04:16:09;100626.38;;;-1.32;100.00
10638;BME280;47007;49.252;8.904;2023-02-28T04:17:02;100645.38;;;-1.16;100.00
10638;BME280;47007;49.252;8.904;2023-02-28T04:17:43;100656.25;;;-1.09;100.00
10638;BME280;47007;49.252;8.904;2023-02-28T04:18:25;100661.22;;;-1.04;100.00
10638;BME280;47007;49.252;8.904;2023-02-28T04:19:08;100662.97;;;-1.05;100.00
10638;BME280;47007;49.252;8.904;2023-02-28T04:19:50;100643.53;;;-1.14;100.00
10638;BME280;47007;49.252;8.904;2023-02-28T04:20:32;100648.28;;;-1.06;100.00
10638;BME280;47007;49.252;8.904;2023-02-28T04:21:14;100623.25;;;-1.23;100.00
10638;BME280;47007;49.252;8.904;2023-02-28T04:21:56;100674.50;;;-0.95;100.00
10638;BME280;47007;49.252;8.904;2023-02-28T04:22:37;100661.78;;;-0.99;100.00
10638;BME280;47007;49.252;8.904;2023-02-28T04:23:19;100663.00;;;-0.91;100.00
10638;BME280;47007;49.252;8.904;2023-02-28T04:24:01;100667.19;;;-0.88;100.00
10638;BME280;47007;49.252;8.904;2023-02-28T04:24:42;100659.41;;;-0.88;100.00
10638;BME280;47007;49.252;8.904;2023-02-28T04:25:24;100664.69;;;-0.90;100.00
10638;BME280;47007;49.252;8.904;2023-02-28T04:26:06;100605.03;;;-1.23;100.00